createdAt,value
2022-09-23T00:01:43.750Z,11.40
2022-09-23T00:04:10.663Z,11.50
2022-09-23T00:06:37.259Z,11.50
2022-09-23T00:09:03.808Z,11.50
2022-09-23T00:11:30.379Z,11.50
2022-09-23T00:13:58.298Z,11.40
2022-09-23T00:16:34.839Z,11.40
2022-09-23T00:19:04.425Z,11.40
2022-09-23T00:21:30.959Z,11.30
2022-09-23T00:23:57.522Z,11.20
2022-09-23T00:26:24.061Z,11.30
2022-09-23T00:28:51.000Z,11.20
2022-09-23T00:31:22.450Z,11.20
2022-09-23T00:33:53.038Z,11.20
2022-09-23T00:36:19.543Z,11.20
2022-09-23T00:38:46.119Z,11.20
2022-09-23T00:41:15.142Z,11.10
2022-09-23T00:43:44.575Z,11.10
2022-09-23T00:46:31.469Z,11.10
2022-09-23T00:49:01.324Z,11.10
2022-09-23T00:51:32.391Z,11.10
2022-09-23T00:53:59.084Z,11.10
2022-09-23T00:56:25.719Z,11.10
2022-09-23T00:58:52.934Z,11.10
2022-09-23T01:01:20.387Z,11.10
2022-09-23T01:03:47.364Z,11.00
2022-09-23T01:06:14.170Z,11.00
2022-09-23T01:08:42.251Z,11.00
2022-09-23T01:11:19.508Z,10.90
2022-09-23T01:13:57.173Z,10.90
2022-09-23T01:16:42.511Z,10.80
2022-09-23T01:19:22.408Z,10.80
2022-09-23T01:22:04.848Z,10.80
2022-09-23T01:24:46.259Z,10.80
2022-09-23T01:27:15.647Z,10.80
2022-09-23T01:29:58.296Z,10.70
2022-09-23T01:32:33.909Z,10.70
2022-09-23T01:35:03.957Z,10.70
2022-09-23T01:37:38.209Z,10.70
2022-09-23T01:40:27.878Z,10.60
2022-09-23T01:42:58.127Z,10.70
2022-09-23T01:45:32.176Z,10.60
2022-09-23T01:48:10.208Z,10.70
2022-09-23T01:50:56.898Z,10.60
2022-09-23T01:53:42.220Z,10.60
2022-09-23T01:56:12.423Z,10.60
2022-09-23T01:58:48.371Z,10.60
2022-09-23T02:01:21.228Z,10.60
2022-09-23T02:04:08.737Z,10.60
2022-09-23T02:06:37.559Z,10.60
2022-09-23T02:09:15.662Z,10.60
2022-09-23T02:11:46.021Z,10.60
2022-09-23T02:14:19.151Z,10.60
2022-09-23T02:16:50.562Z,10.60
2022-09-23T02:19:23.139Z,10.60
2022-09-23T02:21:52.760Z,10.50
2022-09-23T02:24:26.939Z,10.60
2022-09-23T02:26:55.813Z,10.50
2022-09-23T02:29:22.365Z,10.50
2022-09-23T02:31:54.735Z,10.40
2022-09-23T02:34:21.919Z,10.40
2022-09-23T02:36:56.051Z,10.40
2022-09-23T02:39:23.948Z,10.40
2022-09-23T02:41:55.704Z,10.40
2022-09-23T02:44:23.961Z,10.40
2022-09-23T02:46:53.135Z,10.40
2022-09-23T02:49:24.544Z,10.30
2022-09-23T02:51:51.241Z,10.30
2022-09-23T02:54:25.632Z,10.30
2022-09-23T02:56:53.409Z,10.30
2022-09-23T02:59:23.550Z,10.20
2022-09-23T03:01:53.821Z,10.20
2022-09-23T03:04:38.502Z,10.10
2022-09-23T03:07:17.683Z,10.20
2022-09-23T03:09:54.328Z,10.20
2022-09-23T03:12:37.457Z,10.20
2022-09-23T03:15:10.015Z,10.10
2022-09-23T03:17:44.217Z,10.10
2022-09-23T03:20:15.422Z,10.20
2022-09-23T03:22:47.058Z,10.10
2022-09-23T03:25:15.894Z,10.20
2022-09-23T03:27:43.375Z,10.10
2022-09-23T03:30:10.330Z,10.10
2022-09-23T03:32:38.299Z,10.10
2022-09-23T03:35:05.355Z,10.10
2022-09-23T03:37:40.966Z,10.10
2022-09-23T03:40:15.838Z,10.10
2022-09-23T03:42:42.947Z,10.10
2022-09-23T03:45:11.783Z,10.10
2022-09-23T03:47:39.446Z,10.10
2022-09-23T03:50:06.217Z,10.10
2022-09-23T03:52:32.749Z,10.10
2022-09-23T03:54:59.410Z,10.10
2022-09-23T03:57:25.947Z,10.20
2022-09-23T03:59:52.758Z,10.20
2022-09-23T04:02:19.904Z,10.10
2022-09-23T04:04:46.646Z,10.10
2022-09-23T04:07:13.470Z,10.30
2022-09-23T04:09:40.276Z,10.30
2022-09-23T04:12:07.055Z,10.30
2022-09-23T04:14:33.860Z,10.30
2022-09-23T04:17:00.402Z,10.30
2022-09-23T04:19:26.899Z,10.20
2022-09-23T04:21:53.451Z,10.30
2022-09-23T04:24:20.050Z,10.30
2022-09-23T04:26:49.881Z,10.30
2022-09-23T04:29:16.410Z,10.30
2022-09-23T04:31:42.920Z,10.30
2022-09-23T04:34:10.081Z,10.30
2022-09-23T04:36:36.596Z,10.30
2022-09-23T04:39:03.253Z,10.30
2022-09-23T04:41:29.845Z,10.30
2022-09-23T04:43:57.509Z,10.40
2022-09-23T04:46:24.213Z,10.40
2022-09-23T04:48:50.804Z,10.40
2022-09-23T04:51:19.451Z,10.40
2022-09-23T04:53:47.228Z,10.40
2022-09-23T04:56:13.815Z,10.50
2022-09-23T04:58:41.078Z,10.60
2022-09-23T05:01:18.238Z,10.60
2022-09-23T05:03:48.387Z,10.60
2022-09-23T05:06:17.807Z,10.60
2022-09-23T05:08:49.047Z,10.60
2022-09-23T05:11:15.778Z,10.70
2022-09-23T05:13:42.751Z,10.70
2022-09-23T05:16:12.312Z,10.80
2022-09-23T05:18:41.052Z,10.80
2022-09-23T05:21:07.679Z,10.80
2022-09-23T05:23:34.218Z,10.80
2022-09-23T05:26:02.772Z,10.90
2022-09-23T05:28:32.716Z,11.00
2022-09-23T05:31:04.341Z,11.00
2022-09-23T05:33:34.853Z,11.00
2022-09-23T05:36:01.805Z,11.10
2022-09-23T05:38:29.374Z,11.10
2022-09-23T05:40:59.501Z,11.10
2022-09-23T05:43:26.072Z,11.10
2022-09-23T05:46:02.247Z,11.10
2022-09-23T05:48:31.499Z,11.20
2022-09-23T05:50:58.260Z,11.30
2022-09-23T05:53:24.870Z,11.30
2022-09-23T05:55:51.526Z,11.30
2022-09-23T05:58:18.078Z,11.30
2022-09-23T06:00:44.612Z,11.40
2022-09-23T06:03:12.415Z,11.40
2022-09-23T06:05:38.936Z,11.40
2022-09-23T06:08:05.617Z,11.40
2022-09-23T06:10:36.000Z,11.50
2022-09-23T06:13:02.525Z,11.50
2022-09-23T06:15:29.031Z,11.60
2022-09-23T06:17:55.537Z,11.70
2022-09-23T06:20:22.044Z,11.70
2022-09-23T06:22:52.499Z,11.70
2022-09-23T06:25:22.984Z,11.70
2022-09-23T06:27:54.307Z,11.80
2022-09-23T06:30:21.652Z,11.80
2022-09-23T06:32:49.854Z,11.90
2022-09-23T06:35:26.663Z,11.90
2022-09-23T06:37:54.462Z,12.00
2022-09-23T06:40:22.384Z,12.00
2022-09-23T06:42:52.366Z,12.10
2022-09-23T06:45:19.038Z,12.10
2022-09-23T06:47:45.557Z,12.20
2022-09-23T06:50:14.738Z,12.20
2022-09-23T06:52:41.995Z,12.30
2022-09-23T06:55:10.059Z,12.40
2022-09-23T06:57:36.571Z,12.50
2022-09-23T07:00:03.404Z,12.60
2022-09-23T07:02:30.038Z,12.60
2022-09-23T07:04:57.359Z,12.70
2022-09-23T07:07:23.943Z,12.80
2022-09-23T07:09:51.206Z,12.90
2022-09-23T07:12:17.716Z,12.90
2022-09-23T07:14:44.685Z,13.00
2022-09-23T07:17:12.423Z,13.00
2022-09-23T07:19:38.976Z,13.00
2022-09-23T07:22:05.486Z,13.10
2022-09-23T07:24:33.160Z,13.20
2022-09-23T07:26:59.796Z,13.30
2022-09-23T07:29:26.307Z,13.40
2022-09-23T07:31:54.801Z,13.50
2022-09-23T07:34:24.202Z,13.50
2022-09-23T07:36:50.744Z,13.60
2022-09-23T07:39:17.320Z,13.70
2022-09-23T07:41:44.234Z,13.70
2022-09-23T07:44:11.656Z,13.80
2022-09-23T07:46:38.561Z,13.80
2022-09-23T07:49:05.733Z,13.90
2022-09-23T07:51:36.328Z,14.00
2022-09-23T07:54:05.334Z,14.00
2022-09-23T07:56:31.874Z,14.10
2022-09-23T07:59:01.950Z,14.10
2022-09-23T08:01:29.846Z,14.30
2022-09-23T08:03:57.242Z,14.40
2022-09-23T08:06:23.789Z,14.50
2022-09-23T08:08:53.319Z,14.60
2022-09-23T08:11:20.355Z,14.60
2022-09-23T08:13:47.667Z,14.70
2022-09-23T08:16:14.290Z,14.80
2022-09-23T08:18:43.531Z,14.90
2022-09-23T08:21:10.095Z,15.00
2022-09-23T08:23:36.871Z,15.20
2022-09-23T08:26:04.725Z,15.20
2022-09-23T08:28:33.290Z,15.30
2022-09-23T08:30:59.990Z,15.30
2022-09-23T08:33:26.691Z,15.40
2022-09-23T08:35:58.436Z,15.60
2022-09-23T08:38:25.046Z,15.60
2022-09-23T08:40:52.388Z,15.70
2022-09-23T08:43:33.603Z,15.80
2022-09-23T08:46:01.890Z,15.90
2022-09-23T08:48:30.086Z,16.00
2022-09-23T08:51:01.469Z,16.10
2022-09-23T08:53:33.394Z,16.10
2022-09-23T08:56:01.195Z,16.20
2022-09-23T08:58:27.809Z,16.30
2022-09-23T09:01:13.481Z,16.40
2022-09-23T09:03:45.145Z,16.50
2022-09-23T09:06:15.770Z,16.60
2022-09-23T09:08:43.672Z,16.50
2022-09-23T09:11:12.076Z,16.60
2022-09-23T09:13:44.920Z,16.70
2022-09-23T09:16:55.384Z,16.80
2022-09-23T09:19:34.806Z,16.80
2022-09-23T09:22:03.423Z,16.90
2022-09-23T09:24:33.537Z,16.90
2022-09-23T09:27:13.080Z,16.90
2022-09-23T09:29:42.698Z,16.90
2022-09-23T09:32:14.208Z,17.00
2022-09-23T09:34:45.082Z,17.00
2022-09-23T09:37:25.057Z,17.00
2022-09-23T09:39:51.917Z,17.10
2022-09-23T09:42:20.851Z,17.20
2022-09-23T09:44:47.318Z,17.20
2022-09-23T09:47:32.575Z,17.30
2022-09-23T09:50:09.907Z,17.40
2022-09-23T09:52:43.244Z,17.40
2022-09-23T09:55:12.684Z,17.50
2022-09-23T09:57:39.174Z,17.60
2022-09-23T10:00:25.683Z,17.60
2022-09-23T10:02:53.048Z,17.60
2022-09-23T10:05:42.946Z,17.60
2022-09-23T10:08:19.319Z,17.70
2022-09-23T10:10:58.216Z,17.80
2022-09-23T10:13:24.884Z,17.90
2022-09-23T10:15:54.725Z,18.00
2022-09-23T10:18:32.247Z,18.00
2022-09-23T10:21:06.452Z,18.10
2022-09-23T10:23:33.329Z,18.20
2022-09-23T10:26:01.591Z,18.30
2022-09-23T10:28:41.065Z,18.20
2022-09-23T10:31:12.858Z,18.20
2022-09-23T10:34:00.324Z,18.30
2022-09-23T10:36:28.023Z,18.20
2022-09-23T10:39:20.352Z,18.30
2022-09-23T10:42:22.199Z,18.40
2022-09-23T10:45:10.263Z,18.40
2022-09-23T10:47:42.062Z,18.60
2022-09-23T10:50:14.436Z,18.60
2022-09-23T10:52:40.957Z,18.60
2022-09-23T10:55:13.303Z,18.70
2022-09-23T10:57:46.279Z,18.70
2022-09-23T11:00:15.730Z,18.70
2022-09-23T11:02:45.101Z,18.80
2022-09-23T11:05:30.623Z,18.80
2022-09-23T11:08:13.472Z,18.80
2022-09-23T11:10:45.955Z,18.70
2022-09-23T11:13:23.210Z,18.90
2022-09-23T11:15:55.883Z,19.10
2022-09-23T11:18:26.850Z,19.10
2022-09-23T11:21:07.955Z,19.20
2022-09-23T11:23:47.116Z,19.30
2022-09-23T11:26:19.867Z,19.40
2022-09-23T11:28:54.983Z,19.30
2022-09-23T11:31:21.596Z,19.40
2022-09-23T11:34:07.775Z,19.40
2022-09-23T11:36:37.710Z,19.40
2022-09-23T11:39:14.423Z,19.40
2022-09-23T11:41:41.961Z,19.40
2022-09-23T11:44:26.554Z,19.50
2022-09-23T11:46:59.567Z,19.40
2022-09-23T11:49:39.254Z,19.50
2022-09-23T11:52:12.647Z,19.60
2022-09-23T11:54:51.217Z,19.60
2022-09-23T11:57:26.593Z,19.60
2022-09-23T11:59:59.580Z,19.70
2022-09-23T12:02:36.857Z,19.70
2022-09-23T12:05:07.965Z,19.90
2022-09-23T12:07:44.175Z,20.00
2022-09-23T12:10:11.760Z,20.20
2022-09-23T12:12:54.715Z,20.20
2022-09-23T12:15:34.304Z,20.30
2022-09-23T12:18:14.376Z,20.30
2022-09-23T12:20:51.778Z,20.30
2022-09-23T12:23:24.536Z,20.10
2022-09-23T12:25:51.031Z,20.10
2022-09-23T12:28:19.277Z,20.20
2022-09-23T12:30:46.668Z,20.20
2022-09-23T12:33:24.543Z,20.10
2022-09-23T12:35:53.405Z,20.20
2022-09-23T12:38:25.177Z,20.20
2022-09-23T12:40:53.276Z,20.10
2022-09-23T12:43:29.330Z,20.20
2022-09-23T12:46:17.148Z,20.20
2022-09-23T12:48:44.748Z,20.10
2022-09-23T12:51:16.484Z,20.00
2022-09-23T12:53:55.199Z,19.90
2022-09-23T12:56:23.183Z,19.80
2022-09-23T12:58:50.455Z,20.10
2022-09-23T13:01:18.949Z,20.20
2022-09-23T13:04:04.756Z,20.30
2022-09-23T13:06:39.238Z,20.30
2022-09-23T13:09:24.762Z,20.20
2022-09-23T13:11:53.008Z,20.30
2022-09-23T13:14:26.685Z,20.50
2022-09-23T13:16:56.023Z,20.50
2022-09-23T13:19:25.363Z,20.40
2022-09-23T13:21:59.980Z,20.40
2022-09-23T13:24:28.821Z,20.40
2022-09-23T13:27:13.841Z,20.50
2022-09-23T13:29:58.826Z,20.40
2022-09-23T13:32:28.119Z,20.50
2022-09-23T13:35:15.611Z,20.50
2022-09-23T13:37:44.407Z,20.40
2022-09-23T13:40:23.658Z,20.30
2022-09-23T13:42:53.534Z,20.40
2022-09-23T13:45:22.609Z,20.40
2022-09-23T13:47:49.938Z,20.40
2022-09-23T13:50:18.140Z,20.50
2022-09-23T13:52:45.137Z,20.40
2022-09-23T13:55:29.224Z,20.40
2022-09-23T13:58:03.934Z,20.40
2022-09-23T14:00:35.431Z,20.20
2022-09-23T14:03:02.591Z,20.20
2022-09-23T14:05:32.843Z,20.30
2022-09-23T14:07:59.536Z,20.30
2022-09-23T14:10:27.685Z,20.40
2022-09-23T14:12:55.163Z,20.40
2022-09-23T14:15:22.249Z,20.50
2022-09-23T14:17:51.457Z,20.40
2022-09-23T14:20:20.043Z,20.50
2022-09-23T14:22:46.551Z,20.50
2022-09-23T14:25:14.583Z,20.50
2022-09-23T14:27:42.136Z,20.40
2022-09-23T14:30:17.857Z,20.30
2022-09-23T14:32:45.499Z,20.30
2022-09-23T14:35:25.825Z,20.50
2022-09-23T14:38:12.224Z,20.50
2022-09-23T14:40:50.634Z,20.30
2022-09-23T14:43:23.035Z,20.10
2022-09-23T14:45:54.694Z,20.10
2022-09-23T14:48:26.725Z,20.10
2022-09-23T14:50:57.714Z,20.00
2022-09-23T14:53:27.116Z,19.80
2022-09-23T14:55:57.275Z,19.90
2022-09-23T14:58:27.965Z,19.90
2022-09-23T15:01:03.902Z,19.80
2022-09-23T15:03:30.509Z,19.80
2022-09-23T15:06:08.327Z,19.80
2022-09-23T15:08:35.645Z,19.60
2022-09-23T15:11:08.285Z,19.60
2022-09-23T15:13:40.170Z,19.60
2022-09-23T15:16:07.260Z,19.70
2022-09-23T15:18:36.888Z,19.60
2022-09-23T15:21:08.632Z,19.60
2022-09-23T15:23:41.401Z,19.60
2022-09-23T15:26:15.361Z,19.50
2022-09-23T15:28:42.400Z,19.50
2022-09-23T15:31:16.031Z,19.50
2022-09-23T15:33:47.449Z,19.50
2022-09-23T15:36:16.368Z,19.50
2022-09-23T15:38:43.187Z,19.40
2022-09-23T15:41:09.705Z,19.50
2022-09-23T15:43:36.242Z,19.40
2022-09-23T15:46:05.736Z,19.30
2022-09-23T15:48:40.191Z,19.20
2022-09-23T15:51:08.052Z,19.30
2022-09-23T15:53:34.552Z,19.20
2022-09-23T15:56:01.139Z,19.10
2022-09-23T15:58:27.825Z,19.10
2022-09-23T16:00:56.830Z,19.10
2022-09-23T16:03:28.323Z,19.10
2022-09-23T16:06:01.132Z,19.00
2022-09-23T16:08:28.242Z,19.00
2022-09-23T16:10:55.100Z,18.90
2022-09-23T16:13:21.752Z,18.90
2022-09-23T16:15:48.261Z,18.70
2022-09-23T16:18:14.877Z,18.70
2022-09-23T16:20:43.000Z,18.80
2022-09-23T16:23:16.500Z,18.80
2022-09-23T16:25:43.448Z,18.70
2022-09-23T16:28:10.188Z,18.80
2022-09-23T16:30:36.926Z,18.70
2022-09-23T16:33:03.448Z,18.70
2022-09-23T16:35:33.452Z,18.60
2022-09-23T16:37:59.981Z,18.70
2022-09-23T16:40:26.886Z,18.60
2022-09-23T16:42:54.932Z,18.60
2022-09-23T16:45:22.933Z,18.50
2022-09-23T16:47:51.093Z,18.50
2022-09-23T16:50:18.564Z,18.40
2022-09-23T16:52:46.026Z,18.40
2022-09-23T16:55:13.319Z,18.30
2022-09-23T16:57:40.350Z,18.20
2022-09-23T17:00:37.743Z,18.00
2022-09-23T17:03:23.228Z,18.10
2022-09-23T17:05:54.184Z,18.00
2022-09-23T17:08:20.712Z,18.00
2022-09-23T17:10:54.961Z,17.80
2022-09-23T17:13:21.651Z,17.70
2022-09-23T17:15:48.147Z,17.70
2022-09-23T17:18:19.345Z,17.70
2022-09-23T17:20:59.195Z,17.60
2022-09-23T17:23:28.905Z,17.60
2022-09-23T17:25:55.432Z,17.50
2022-09-23T17:28:21.967Z,17.50
2022-09-23T17:30:52.474Z,17.50
2022-09-23T17:33:22.348Z,17.50
2022-09-23T17:35:49.062Z,17.50
2022-09-23T17:38:15.556Z,17.50
2022-09-23T17:40:48.797Z,17.40
2022-09-23T17:43:15.362Z,17.40
2022-09-23T17:45:41.911Z,17.20
2022-09-23T17:48:08.460Z,17.20
2022-09-23T17:50:34.961Z,17.20
2022-09-23T17:53:01.468Z,17.10
2022-09-23T17:55:27.972Z,17.20
2022-09-23T17:57:54.559Z,17.20
2022-09-23T18:00:24.097Z,17.10
2022-09-23T18:02:51.337Z,17.10
2022-09-23T18:05:17.914Z,17.10
2022-09-23T18:07:44.423Z,17.10
2022-09-23T18:10:11.561Z,17.10
2022-09-23T18:12:38.071Z,17.00
2022-09-23T18:15:04.752Z,17.00
2022-09-23T18:17:31.301Z,17.00
2022-09-23T18:19:57.799Z,17.00
2022-09-23T18:22:24.291Z,17.00
2022-09-23T18:24:50.840Z,16.90
2022-09-23T18:27:17.339Z,16.90
2022-09-23T18:29:43.867Z,16.90
2022-09-23T18:32:14.089Z,16.90
2022-09-23T18:34:41.006Z,16.80
2022-09-23T18:37:15.304Z,16.80
2022-09-23T18:39:42.466Z,16.70
2022-09-23T18:42:09.006Z,16.70
2022-09-23T18:44:35.603Z,16.70
2022-09-23T18:47:02.107Z,16.70
2022-09-23T18:49:47.142Z,16.70
2022-09-23T18:52:13.651Z,16.80
2022-09-23T18:54:40.142Z,16.80
2022-09-23T18:57:06.709Z,16.80
2022-09-23T18:59:33.326Z,16.80
2022-09-23T19:01:59.998Z,16.80
2022-09-23T19:04:26.676Z,16.80
2022-09-23T19:06:56.161Z,16.70
2022-09-23T19:09:23.209Z,16.70
2022-09-23T19:11:51.907Z,16.70
2022-09-23T19:14:18.444Z,16.70
2022-09-23T19:16:45.015Z,16.70
2022-09-23T19:19:11.516Z,16.70
2022-09-23T19:21:38.042Z,16.70
2022-09-23T19:24:06.057Z,16.60
2022-09-23T19:26:34.565Z,16.60
2022-09-23T19:29:02.430Z,16.60
2022-09-23T19:31:31.443Z,16.70
2022-09-23T19:33:59.511Z,16.70
2022-09-23T19:36:29.008Z,16.60
2022-09-23T19:38:56.379Z,16.60
2022-09-23T19:41:23.245Z,16.70
2022-09-23T19:43:51.736Z,16.60
2022-09-23T19:46:18.341Z,16.70
2022-09-23T19:48:44.852Z,16.60
2022-09-23T19:51:11.398Z,16.60
2022-09-23T19:53:37.960Z,16.50
2022-09-23T19:56:04.909Z,16.60
2022-09-23T19:58:31.756Z,16.60
2022-09-23T20:00:58.552Z,16.60
2022-09-23T20:03:25.850Z,16.60
2022-09-23T20:05:56.714Z,16.60
2022-09-23T20:08:24.001Z,16.60
2022-09-23T20:10:50.543Z,16.60
2022-09-23T20:13:19.960Z,16.60
2022-09-23T20:15:48.139Z,16.60
2022-09-23T20:18:15.376Z,16.60
2022-09-23T20:20:42.039Z,16.60
2022-09-23T20:23:08.524Z,16.60
2022-09-23T20:25:54.988Z,16.60
2022-09-23T20:28:22.280Z,16.60
2022-09-23T20:30:48.920Z,16.50
2022-09-23T20:33:15.554Z,16.50
2022-09-23T20:35:43.748Z,16.60
2022-09-23T20:38:10.406Z,16.60
2022-09-23T20:40:38.317Z,16.60
2022-09-23T20:43:05.102Z,16.50
2022-09-23T20:45:31.865Z,16.50
2022-09-23T20:48:00.098Z,16.50
2022-09-23T20:50:26.663Z,16.50
2022-09-23T20:52:53.192Z,16.50
2022-09-23T20:55:19.712Z,16.50
2022-09-23T20:57:47.481Z,16.50
2022-09-23T21:00:14.421Z,16.40
2022-09-23T21:02:43.273Z,16.40
2022-09-23T21:05:10.460Z,16.40
2022-09-23T21:07:37.459Z,16.40
2022-09-23T21:10:06.756Z,16.40
2022-09-23T21:12:33.254Z,16.40
2022-09-23T21:14:59.779Z,16.30
2022-09-23T21:17:26.825Z,16.30
2022-09-23T21:19:53.392Z,16.30
2022-09-23T21:22:19.914Z,16.20
2022-09-23T21:25:26.192Z,16.20
2022-09-23T21:27:37.090Z,16.20
2022-09-23T21:30:04.517Z,16.30
2022-09-23T21:32:31.208Z,16.30
2022-09-23T21:34:57.792Z,16.30
2022-09-23T21:37:25.379Z,16.30
2022-09-23T21:40:10.832Z,16.30
2022-09-23T21:42:37.467Z,16.30
2022-09-23T21:45:05.116Z,16.20
2022-09-23T21:47:32.335Z,16.30
2022-09-23T21:49:58.830Z,16.20
2022-09-23T21:52:25.335Z,16.20
2022-09-23T21:54:52.013Z,16.20
2022-09-23T21:57:18.533Z,16.20
2022-09-23T21:59:45.052Z,16.20
2022-09-23T22:02:11.544Z,16.20
2022-09-23T22:04:38.128Z,16.20
2022-09-23T22:07:04.747Z,16.20
2022-09-23T22:09:31.315Z,16.10
2022-09-23T22:12:11.548Z,16.10
2022-09-23T22:14:38.916Z,16.10
2022-09-23T22:17:06.904Z,16.00
2022-09-23T22:19:35.793Z,16.00
2022-09-23T22:22:06.645Z,16.10
2022-09-23T22:24:33.175Z,16.10
2022-09-23T22:26:59.706Z,16.10
2022-09-23T22:29:44.929Z,16.10
2022-09-23T22:32:30.392Z,16.20
2022-09-23T22:34:57.292Z,16.10
2022-09-23T22:37:25.662Z,16.00
2022-09-23T22:39:52.435Z,16.10
2022-09-23T22:42:21.754Z,16.00
2022-09-23T22:44:48.678Z,16.00
2022-09-23T22:47:15.280Z,16.10
2022-09-23T22:49:42.792Z,16.10
2022-09-23T22:52:11.156Z,16.10
2022-09-23T22:54:37.984Z,16.10
2022-09-23T22:57:05.078Z,16.00
2022-09-23T22:59:33.638Z,16.00
2022-09-23T23:02:02.265Z,16.00
2022-09-23T23:04:29.761Z,16.10
2022-09-23T23:06:57.214Z,16.10
2022-09-23T23:09:23.729Z,16.10
2022-09-23T23:11:50.232Z,16.00
2022-09-23T23:14:17.742Z,16.10
2022-09-23T23:16:46.021Z,16.10
2022-09-23T23:19:14.039Z,16.00
2022-09-23T23:21:43.213Z,16.10
2022-09-23T23:24:14.173Z,16.00
2022-09-23T23:26:40.664Z,16.10
2022-09-23T23:29:07.194Z,15.90
2022-09-23T23:31:33.791Z,15.90
2022-09-23T23:34:00.413Z,16.00
2022-09-23T23:36:26.958Z,16.00
2022-09-23T23:38:53.548Z,16.00
2022-09-23T23:41:21.869Z,16.00
2022-09-23T23:43:49.897Z,15.90
2022-09-23T23:46:16.508Z,16.00
2022-09-23T23:48:48.006Z,16.00
2022-09-23T23:51:15.140Z,15.90
2022-09-23T23:53:42.286Z,15.90
2022-09-23T23:56:13.206Z,15.90
2022-09-23T23:58:40.033Z,16.00
